Time;durP1;ratioP1;P1;durP2;ratioP2;P2;SDS_P1;SDS_P2;PMS_P1;PMS_P2;Temp;Humidity;BMP_temperature;BMP_pressure;BME280_temperature;BME280_humidity;BME280_pressure;Samples;Min_cycle;Max_cycle;Signal;HPM_P1;HPM_P2
2023/01/30 08:04:37;;;;;;;;;;;;;;;1.14;72.82;100370.69;1087207;54;19957;-83
2023/01/30 13:44:26;;;;;;;;;;;;;;;3.43;73.32;100269.31;1087767;46;19943;-81
2023/01/30 13:49:07;;;;;;;;;;;;;;;3.32;74.09;100266.47;1087955;54;19931;-81
2023/01/30 22:14:21;;;;;;;;;;;;;;;4.19;73.77;100787.78;1087275;54;19946;-79
2023/01/30 22:15:39;;;;;;;;;;;;;;;4.08;73.82;100792.81;1088026;54;19948;-83
2023/01/30 22:16:43;;;;;;;;;;;;;;;4.24;73.32;100785.72;1088035;54;19934;-82
2023/01/30 22:17:52;;;;;;;;;;;;;;;4.33;73.23;100784.34;1088063;54;19927;-82
2023/01/30 22:22:00;;;;;;;;;;;;;;;4.09;73.63;100794.50;1087847;54;19943;-81
2023/01/30 22:23:16;;;;;;;;;;;;;;;4.09;73.60;100791.88;1087780;54;19991;-80
2023/01/30 22:24:38;;;;;;;;;;;;;;;4.12;73.45;100789.91;1087979;54;19952;-81
2023/01/30 22:25:40;;;;;;;;;;;;;;;4.13;73.64;100791.63;1087962;54;19943;-82
2023/01/30 22:26:44;;;;;;;;;;;;;;;4.21;73.54;100783.22;1087911;54;19950;-80
2023/01/30 22:27:46;;;;;;;;;;;;;;;4.17;73.40;100787.00;1089997;47;19927;-81
2023/01/30 22:28:55;;;;;;;;;;;;;;;4.19;73.31;100791.25;1087845;54;19938;-80
2023/01/30 22:30:10;;;;;;;;;;;;;;;4.17;73.24;100785.19;1088031;54;19969;-81
2023/01/30 22:31:16;;;;;;;;;;;;;;;4.17;73.61;100795.78;1088165;54;19967;-82
2023/01/30 22:32:19;;;;;;;;;;;;;;;3.99;73.92;100796.78;1088210;54;19967;-81
2023/01/30 22:33:24;;;;;;;;;;;;;;;3.94;74.23;100798.84;1089210;47;19938;-83
2023/01/30 22:34:58;;;;;;;;;;;;;;;;;;;;;
2023/01/30 22:36:10;;;;;;;;;;;;;;;3.91;74.45;100807.81;1088050;54;19934;-81
2023/01/30 22:37:15;;;;;;;;;;;;;;;3.88;74.57;100800.03;1088874;39;20395;-81
2023/01/30 22:38:21;;;;;;;;;;;;;;;3.88;74.39;100802.69;1088184;54;19942;-82
2023/01/30 22:39:23;;;;;;;;;;;;;;;3.85;74.65;100810.78;1088171;54;19959;-81
2023/01/30 22:40:35;;;;;;;;;;;;;;;4.00;74.40;100806.44;1092253;39;20118;-81
2023/01/30 22:41:43;;;;;;;;;;;;;;;3.89;74.26;100815.81;1088125;54;20231;-82
2023/01/30 22:42:49;;;;;;;;;;;;;;;3.82;74.42;100808.31;1088209;47;19943;-83
2023/01/30 22:44:05;;;;;;;;;;;;;;;3.84;74.53;100809.06;1087899;54;19935;-83
2023/01/30 22:45:22;;;;;;;;;;;;;;;3.84;74.58;100809.94;1092173;47;19942;-81
2023/01/30 22:46:24;;;;;;;;;;;;;;;3.85;74.67;100819.56;1087984;54;20654;-82
2023/01/30 22:47:29;;;;;;;;;;;;;;;3.94;74.37;100815.56;1087998;54;20004;-81
2023/01/30 22:48:32;;;;;;;;;;;;;;;3.99;74.25;100816.19;1089524;39;20555;-83
2023/01/30 22:49:41;;;;;;;;;;;;;;;3.93;74.13;100823.59;1087854;54;19935;-82
2023/01/30 22:50:52;;;;;;;;;;;;;;;4.02;74.15;100826.59;1087942;54;19952;-83
2023/01/30 22:52:17;;;;;;;;;;;;;;;3.95;73.97;100824.38;1087977;54;19939;-82
2023/01/30 22:53:30;;;;;;;;;;;;;;;3.98;74.18;100824.19;1088828;47;19999;-82
2023/01/30 22:54:54;;;;;;;;;;;;;;;4.11;73.46;100819.09;1087720;54;19997;-81
2023/01/30 22:55:55;;;;;;;;;;;;;;;4.11;73.64;100816.47;1087694;54;19950;-81
2023/01/30 22:57:01;;;;;;;;;;;;;;;4.13;73.63;100817.19;1090093;47;19945;-81
2023/01/30 22:58:07;;;;;;;;;;;;;;;4.01;73.89;100810.78;1088220;47;19999;-81
2023/01/30 22:59:14;;;;;;;;;;;;;;;4.08;73.35;100809.50;1088017;54;19942;-81
2023/01/30 23:00:20;;;;;;;;;;;;;;;4.08;73.85;100808.69;1091215;47;19939;-81
2023/01/30 23:01:43;;;;;;;;;;;;;;;4.03;73.75;100806.28;1088206;54;19939;-82
2023/01/30 23:02:44;;;;;;;;;;;;;;;3.89;74.39;100825.56;1089505;46;19942;-80
2023/01/30 23:03:53;;;;;;;;;;;;;;;3.97;74.15;100822.50;1088238;54;19942;-80
2023/01/30 23:04:58;;;;;;;;;;;;;;;3.92;74.06;100817.44;1089755;46;19942;-81
2023/01/30 23:06:20;;;;;;;;;;;;;;;4.04;74.11;100821.22;1088032;54;19945;-79
2023/01/30 23:07:22;;;;;;;;;;;;;;;4.03;73.63;100825.66;1088412;46;19954;-80
2023/01/30 23:08:26;;;;;;;;;;;;;;;3.87;74.47;100828.25;1088240;47;19946;-80
2023/01/30 23:09:29;;;;;;;;;;;;;;;3.77;74.90;100828.84;1088434;46;19946;-80
2023/01/30 23:10:31;;;;;;;;;;;;;;;3.74;74.71;100830.72;1090493;46;19933;-80
2023/01/30 23:11:36;;;;;;;;;;;;;;;3.74;75.24;100825.41;1089436;46;19927;-80
2023/01/30 23:13:55;;;;;;;;;;;;;;;3.75;75.07;100828.94;1088207;54;19994;-80
2023/01/30 23:14:58;;;;;;;;;;;;;;;3.75;75.37;100823.66;1087997;54;19946;-80
2023/01/30 23:16:00;;;;;;;;;;;;;;;3.77;75.06;100819.13;1088106;54;19938;-78
2023/01/30 23:18:53;;;;;;;;;;;;;;;3.66;75.39;100818.84;1088578;46;19967;-80
2023/01/30 23:19:44;;;;;;;;;;;;;;;3.67;75.57;100810.81;1089984;46;19938;-79
2023/01/30 23:20:45;;;;;;;;;;;;;;;3.63;75.55;100819.88;1088076;54;19931;-80
2023/01/30 23:21:48;;;;;;;;;;;;;;;3.75;75.18;100821.84;1088102;54;19943;-79
2023/01/30 23:22:50;;;;;;;;;;;;;;;3.74;75.22;100822.78;1088025;54;19943;-80
2023/01/30 23:23:55;;;;;;;;;;;;;;;3.83;74.94;100821.44;1087986;54;19959;-80
2023/01/30 23:24:56;;;;;;;;;;;;;;;3.84;74.67;100823.16;1087954;54;19950;-79
2023/01/30 23:26:02;;;;;;;;;;;;;;;3.80;75.07;100818.13;1088060;54;19951;-79
2023/01/30 23:27:03;;;;;;;;;;;;;;;3.83;74.77;100818.81;1088137;54;19943;-80
2023/01/30 23:28:07;;;;;;;;;;;;;;;3.74;74.99;100814.00;1088056;54;20763;-80
2023/01/30 23:29:12;;;;;;;;;;;;;;;3.71;75.07;100811.50;1088263;54;19942;-79
2023/01/30 23:30:13;;;;;;;;;;;;;;;3.75;75.16;100818.38;1088356;54;19981;-80
2023/01/30 23:31:17;;;;;;;;;;;;;;;3.66;74.99;100802.97;1088422;54;19979;-81
2023/01/30 23:32:22;;;;;;;;;;;;;;;3.61;75.51;100820.88;1088536;47;19943;-80
2023/01/30 23:33:26;;;;;;;;;;;;;;;3.59;75.44;100816.50;1089235;46;19998;-80
2023/01/30 23:34:27;;;;;;;;;;;;;;;3.54;75.89;100815.91;1088481;54;19923;-79
2023/01/30 23:35:31;;;;;;;;;;;;;;;3.55;76.04;100811.47;1088429;54;19949;-80
2023/01/30 23:36:33;;;;;;;;;;;;;;;3.51;76.42;100808.13;1088327;54;19938;-80
2023/01/30 23:38:54;;;;;;;;;;;;;;;3.51;76.38;100805.47;1088261;54;19945;-80
2023/01/30 23:39:59;;;;;;;;;;;;;;;3.56;76.12;100807.88;1088349;54;19946;-79
2023/01/30 23:41:06;;;;;;;;;;;;;;;3.61;75.78;100811.16;1088812;46;19939;-80
2023/01/30 23:42:10;;;;;;;;;;;;;;;3.61;76.10;100810.28;1088865;46;19939;-80
2023/01/30 23:43:12;;;;;;;;;;;;;;;3.63;75.92;100803.13;1087648;54;19950;-80
2023/01/30 23:44:16;;;;;;;;;;;;;;;3.72;75.36;100802.66;1087660;54;19949;-79
2023/01/30 23:45:17;;;;;;;;;;;;;;;3.54;75.93;100810.63;1087497;54;19962;-80
2023/01/30 23:46:22;;;;;;;;;;;;;;;3.53;76.04;100811.56;1087481;54;19950;-79
2023/01/30 23:47:26;;;;;;;;;;;;;;;3.51;76.20;100818.69;1087604;54;19958;-80
2023/01/30 23:48:30;;;;;;;;;;;;;;;3.65;76.11;100811.84;1087572;54;19957;-79
2023/01/30 23:49:31;;;;;;;;;;;;;;;3.75;75.67;100805.13;1087678;54;19951;-80
2023/01/30 23:50:35;;;;;;;;;;;;;;;3.80;75.08;100807.53;1088358;54;19947;-80
2023/01/30 23:51:40;;;;;;;;;;;;;;;3.86;74.95;100809.84;1088180;54;19958;-79
2023/01/30 23:52:43;;;;;;;;;;;;;;;3.88;74.67;100800.88;1088203;54;20001;-78
2023/01/30 23:53:48;;;;;;;;;;;;;;;3.90;74.89;100806.09;1088240;54;19927;-79
2023/01/30 23:54:49;;;;;;;;;;;;;;;3.78;74.88;100804.09;1091549;46;19951;-79
2023/01/30 23:55:53;;;;;;;;;;;;;;;3.71;75.21;100812.38;1087624;46;19994;-80
2023/01/30 23:56:54;;;;;;;;;;;;;;;3.63;75.62;100811.06;1086959;54;19984;-80
2023/01/30 23:57:58;;;;;;;;;;;;;;;3.65;75.80;100812.69;1087442;54;19951;-79
2023/01/30 23:58:59;;;;;;;;;;;;;;;3.79;75.17;100819.88;1087166;54;20525;-79
